White Mountain Lake, Arizona
Current Conditions -  °F | °C
As of 6:55 PM on Monday 24 Nov 2014 (Local Time) from KSOW Reporting Station
Clear Clear  
Wind Chill: 24°   Ceiling: Unl
Heat Index: 32°   Visibility: 10mi
Dew Point:   Wind: 10mph
Humidity: 25%   Direction: 350°N
Pressure: 30.31"   Gusts: 17mph
Location:  34.26°N, 110.17°W
Report Text: KSOW 250155Z AUTO 35009G15KT 10SM CLR 00/M18 A3031 RMK AO2
Loading
Personal Weather Stations






























Interactive Weather Map New forecast layout! Learn more

10-Day Weather Forecast

Advertisements
Track Severe Weather on mobile